Time;durP1;ratioP1;P1;durP2;ratioP2;P2;SDS_P1;SDS_P2;PMS_P1;PMS_P2;Temp;Humidity;BMP_temperature;BMP_pressure;BME280_temperature;BME280_humidity;BME280_pressure;Samples;Min_cycle;Max_cycle;Signal;HPM_P1;HPM_P2
2023/12/29 00:01:50;;;;;;;7.68;2.60;;;;;;;12.60;75.03;100264.69;5021050;28;20050;-81
2023/12/29 00:04:18;;;;;;;6.47;2.65;;;;;;;12.76;75.08;100267.16;5010005;28;20057;-81
2023/12/29 00:06:45;;;;;;;9.02;2.65;;;;;;;12.69;75.06;100258.38;5022300;28;20054;-82
2023/12/29 00:09:12;;;;;;;10.23;2.70;;;;;;;12.61;75.04;100243.53;5023170;28;20116;-81
2023/12/29 00:11:39;;;;;;;5.13;2.50;;;;;;;12.56;75.10;100242.44;5025101;28;20052;-81
2023/12/29 00:14:06;;;;;;;8.35;2.63;;;;;;;12.63;75.00;100238.09;5025159;28;20069;-81
2023/12/29 00:16:32;;;;;;;7.05;2.65;;;;;;;12.79;74.89;100232.66;5022339;28;20149;-81
2023/12/29 00:18:59;;;;;;;9.88;3.05;;;;;;;12.69;74.92;100241.81;5020197;28;20492;-81
2023/12/29 00:21:27;;;;;;;7.13;2.90;;;;;;;12.76;74.90;100246.16;5010060;28;20050;-82
2023/12/29 00:23:53;;;;;;;7.32;2.42;;;;;;;12.81;74.94;100243.00;5017787;28;20132;-82
2023/12/29 00:26:20;;;;;;;6.78;2.70;;;;;;;12.66;74.95;100236.94;5021875;28;20056;-81
2023/12/29 00:28:47;;;;;;;12.32;3.13;;;;;;;12.76;75.04;100240.91;5022458;28;20081;-82
2023/12/29 00:31:15;;;;;;;10.77;3.75;;;;;;;12.96;74.90;100238.56;5022326;28;20124;-82
2023/12/29 00:33:42;;;;;;;8.55;3.30;;;;;;;12.74;75.00;100235.03;5021892;28;20539;-82
2023/12/29 00:36:09;;;;;;;5.72;2.88;;;;;;;12.84;74.92;100230.31;5021086;28;20132;-80
2023/12/29 00:38:36;;;;;;;7.85;2.88;;;;;;;12.76;75.04;100225.16;5014678;28;20054;-80
2023/12/29 00:41:05;;;;;;;5.28;2.67;;;;;;;12.70;75.20;100219.81;5019907;28;20132;-80
2023/12/29 00:43:32;;;;;;;8.43;2.78;;;;;;;12.73;75.10;100228.16;5021826;28;20053;-80
2023/12/29 00:45:58;;;;;;;8.35;3.10;;;;;;;12.63;75.29;100211.84;5020953;28;20078;-80
2023/12/29 00:48:25;;;;;;;5.47;2.47;;;;;;;12.76;74.79;100219.09;5020813;28;20077;-80
2023/12/29 00:50:52;;;;;;;6.97;2.75;;;;;;;12.81;74.64;100222.81;5021643;28;20455;-80
2023/12/29 00:53:18;;;;;;;9.98;2.67;;;;;;;12.79;74.84;100213.47;5014503;28;20140;-79
2023/12/29 00:55:46;;;;;;;5.57;2.67;;;;;;;12.68;75.16;100204.25;5024873;28;20563;-80
2023/12/29 00:58:13;;;;;;;6.88;2.88;;;;;;;12.65;74.99;100207.25;5028986;28;20054;-80
2023/12/29 01:00:39;;;;;;;6.93;3.17;;;;;;;12.82;74.87;100213.94;5027112;28;20080;-82
2023/12/29 01:03:06;;;;;;;9.23;2.75;;;;;;;12.68;74.97;100206.88;5028814;28;20073;-82
2023/12/29 01:05:32;;;;;;;6.13;2.90;;;;;;;12.69;75.11;100205.88;5021734;28;20128;-81
2023/12/29 01:07:59;;;;;;;4.85;2.75;;;;;;;12.69;75.11;100200.63;5020270;28;20053;-81
2023/12/29 01:10:26;;;;;;;9.35;2.80;;;;;;;12.59;75.49;100208.75;5021558;28;20073;-81
2023/12/29 01:12:54;;;;;;;10.32;2.90;;;;;;;12.86;75.22;100199.44;5020880;28;20089;-82
2023/12/29 01:15:20;;;;;;;6.72;2.60;;;;;;;12.67;75.34;100191.31;5020338;28;20073;-80
2023/12/29 01:17:47;;;;;;;9.48;3.35;;;;;;;12.51;75.94;100184.41;5017774;28;20065;-80
2023/12/29 01:20:14;;;;;;;9.73;3.30;;;;;;;12.55;76.28;100193.56;5020162;28;20497;-81
2023/12/29 01:22:40;;;;;;;6.93;2.90;;;;;;;12.30;77.01;100191.16;5018284;28;20109;-80
2023/12/29 01:25:08;;;;;;;6.05;2.55;;;;;;;12.27;77.23;100181.03;5019388;28;20080;-80
2023/12/29 01:27:34;;;;;;;5.82;2.53;;;;;;;12.38;77.48;100187.63;5019584;28;20089;-80
2023/12/29 01:30:02;;;;;;;7.10;2.80;;;;;;;12.45;77.10;100193.81;5020366;28;20137;-80
2023/12/29 01:32:29;;;;;;;6.35;2.80;;;;;;;12.46;77.27;100216.44;5021664;28;20050;-80
2023/12/29 01:34:55;;;;;;;10.68;3.63;;;;;;;12.49;77.17;100194.25;5021871;28;20126;-80
2023/12/29 01:37:22;;;;;;;7.68;2.83;;;;;;;12.66;76.87;100200.19;5019360;28;20077;-79
2023/12/29 01:39:49;;;;;;;10.38;3.15;;;;;;;12.66;76.85;100189.69;5013703;28;20138;-80
2023/12/29 01:42:15;;;;;;;5.72;2.78;;;;;;;12.55;76.58;100186.50;5020150;28;20133;-80
2023/12/29 01:44:43;;;;;;;9.65;3.10;;;;;;;12.71;76.70;100182.91;5021207;28;20108;-80
2023/12/29 01:47:15;;;;;;;9.02;3.10;;;;;;;12.69;77.18;100203.25;5022240;28;20144;-81
2023/12/29 01:49:44;;;;;;;11.98;3.42;;;;;;;12.61;76.93;100192.84;5020814;28;20046;-81
2023/12/29 01:52:11;;;;;;;8.30;3.35;;;;;;;12.56;77.07;100197.81;5022045;28;20082;-80
2023/12/29 01:54:40;;;;;;;9.23;2.90;;;;;;;12.53;77.13;100200.78;5019804;28;20053;-81
2023/12/29 01:57:08;;;;;;;9.15;3.15;;;;;;;12.63;77.08;100185.59;5018514;28;20047;-80
2023/12/29 01:59:37;;;;;;;6.82;3.20;;;;;;;12.51;77.23;100193.09;5018070;28;20161;-81
2023/12/29 02:02:04;;;;;;;12.73;3.50;;;;;;;12.45;77.67;100203.50;5016764;28;20420;-78
2023/12/29 02:04:33;;;;;;;11.80;4.93;;;;;;;12.63;77.48;100199.53;5014682;28;20060;-78
2023/12/29 02:06:59;;;;;;;9.80;3.28;;;;;;;12.56;77.68;100195.19;5014305;28;20070;-77
2023/12/29 02:09:26;;;;;;;6.60;3.05;;;;;;;12.52;77.77;100188.66;5014311;28;20054;-77
2023/12/29 02:11:53;;;;;;;9.93;3.30;;;;;;;12.52;77.82;100186.03;5013338;28;20137;-78
2023/12/29 02:14:21;;;;;;;6.78;2.92;;;;;;;12.39;77.79;100178.78;5014695;28;20058;-78
2023/12/29 02:16:55;;;;;;;9.30;2.90;;;;;;;12.32;78.26;100193.59;5014636;28;20085;-78
2023/12/29 02:19:34;;;;;;;11.10;3.13;;;;;;;12.51;77.91;100172.09;5013720;28;20140;-78
2023/12/29 02:22:02;;;;;;;8.65;2.95;;;;;;;12.43;78.20;100181.84;5014565;28;20149;-78
2023/12/29 02:24:29;;;;;;;5.70;3.08;;;;;;;12.48;78.17;100196.06;5015575;28;20117;-79
2023/12/29 02:27:05;;;;;;;9.93;3.88;;;;;;;12.68;77.84;100188.50;5016075;28;20069;-79
2023/12/29 02:29:34;;;;;;;11.98;3.20;;;;;;;12.57;78.01;100178.44;5018509;28;20046;-79
2023/12/29 02:32:04;;;;;;;8.65;3.50;;;;;;;12.54;78.12;100192.75;5016021;28;20125;-78
2023/12/29 02:34:34;;;;;;;8.38;3.05;;;;;;;12.73;77.83;100196.66;5016574;28;20062;-78
2023/12/29 02:37:01;;;;;;;12.88;3.40;;;;;;;12.57;77.91;100181.06;5014741;28;20049;-78
2023/12/29 02:39:27;;;;;;;10.63;3.40;;;;;;;12.54;78.01;100166.50;5014615;28;20117;-79
2023/12/29 02:41:54;;;;;;;16.67;3.92;;;;;;;12.55;78.33;100164.69;5017491;28;20054;-79
2023/12/29 02:44:22;;;;;;;11.70;4.80;;;;;;;12.47;78.35;100175.25;5017812;28;20046;-79
2023/12/29 02:46:49;;;;;;;9.43;3.13;;;;;;;12.54;78.44;100173.56;5017767;28;20136;-79
2023/12/29 02:49:15;;;;;;;13.30;3.40;;;;;;;12.46;79.03;100153.44;5016507;28;20476;-78
2023/12/29 02:51:42;;;;;;;8.80;3.70;;;;;;;12.32;79.67;100177.84;5016653;28;20128;-79
2023/12/29 02:54:08;;;;;;;8.70;3.13;;;;;;;12.29;79.95;100168.53;5017608;28;20049;-78
2023/12/29 02:56:35;;;;;;;11.65;3.40;;;;;;;12.44;79.75;100162.50;5016371;28;20050;-79
2023/12/29 02:59:02;;;;;;;7.72;2.88;;;;;;;12.33;79.94;100163.75;5016283;28;20064;-78
2023/12/29 03:01:30;;;;;;;9.52;3.33;;;;;;;12.27;80.09;100175.78;5016216;28;20046;-78
2023/12/29 03:03:57;;;;;;;10.48;3.63;;;;;;;12.22;80.64;100170.25;5018703;28;20081;-78
2023/12/29 03:06:24;;;;;;;4.60;2.47;;;;;;;12.23;80.63;100174.50;5019878;28;20049;-79
2023/12/29 03:08:51;;;;;;;14.93;4.07;;;;;;;12.33;80.70;100176.84;5022227;28;20064;-80
2023/12/29 03:11:18;;;;;;;13.02;4.13;;;;;;;12.40;80.62;100172.53;5015385;28;20073;-79
2023/12/29 03:13:44;;;;;;;11.25;3.50;;;;;;;12.35;80.68;100160.94;5025441;28;20055;-80
2023/12/29 03:16:11;;;;;;;11.15;3.53;;;;;;;12.48;80.41;100161.16;5022536;28;20053;-80
2023/12/29 03:18:41;;;;;;;5.88;2.67;;;;;;;12.54;80.31;100171.75;5016447;28;20492;-79
2023/12/29 03:21:07;;;;;;;9.82;3.42;;;;;;;12.33;80.55;100160.31;5015212;28;20447;-79
2023/12/29 03:23:34;;;;;;;12.15;3.80;;;;;;;12.33;80.84;100141.94;5016876;28;20062;-79
2023/12/29 03:26:01;;;;;;;11.70;3.33;;;;;;;12.37;80.78;100151.09;5016036;28;20534;-79
2023/12/29 03:28:27;;;;;;;11.23;3.10;;;;;;;12.29;80.67;100165.91;5015433;28;20049;-78
2023/12/29 03:30:54;;;;;;;10.70;3.53;;;;;;;12.41;80.80;100155.78;5016565;28;20069;-80
2023/12/29 03:33:21;;;;;;;10.13;3.35;;;;;;;12.32;80.97;100158.66;5017520;28;20053;-80
2023/12/29 03:35:49;;;;;;;14.52;3.17;;;;;;;12.26;81.07;100153.19;5017340;28;20050;-79
2023/12/29 03:38:16;;;;;;;8.25;3.05;;;;;;;12.33;81.27;100162.94;5017111;28;20085;-80
2023/12/29 03:40:42;;;;;;;9.43;2.90;;;;;;;12.36;81.06;100157.31;5018608;28;20045;-80
2023/12/29 03:43:09;;;;;;;10.18;3.15;;;;;;;12.30;81.17;100149.16;5017124;28;20236;-79
2023/12/29 03:45:35;;;;;;;9.88;3.28;;;;;;;12.24;81.05;100149.91;5017104;28;20145;-80
2023/12/29 03:48:02;;;;;;;11.65;3.60;;;;;;;12.43;80.97;100158.25;5016667;28;20084;-79
2023/12/29 03:50:28;;;;;;;11.20;3.05;;;;;;;12.30;81.00;100154.41;5015433;28;20106;-79
2023/12/29 03:52:56;;;;;;;7.78;3.00;;;;;;;12.43;80.91;100148.56;5015094;28;20136;-79
2023/12/29 03:55:23;;;;;;;6.20;2.95;;;;;;;12.30;80.89;100151.78;5014253;28;20060;-79
2023/12/29 03:57:50;;;;;;;5.78;2.83;;;;;;;12.25;81.25;100154.16;5013739;28;20046;-79
2023/12/29 04:00:17;;;;;;;9.25;3.15;;;;;;;12.27;81.22;100161.84;5013814;28;20472;-79
2023/12/29 04:02:44;;;;;;;9.63;3.55;;;;;;;12.24;81.53;100149.91;5014357;28;20049;-79
2023/12/29 04:05:11;;;;;;;8.50;3.20;;;;;;;12.26;81.21;100134.81;5015525;28;20081;-80
2023/12/29 04:07:40;;;;;;;9.45;3.33;;;;;;;12.17;81.60;100141.13;5014402;28;20045;-79
2023/12/29 04:10:09;;;;;;;10.85;3.10;;;;;;;12.35;81.37;100142.56;5015525;28;20046;-79
2023/12/29 04:12:36;;;;;;;8.75;3.22;;;;;;;12.28;81.17;100140.69;5016730;28;20145;-80
2023/12/29 04:15:02;;;;;;;10.35;3.08;;;;;;;12.40;80.97;100117.44;5016749;28;20148;-80
2023/12/29 04:17:29;;;;;;;5.40;2.75;;;;;;;12.51;80.88;100129.28;5016762;28;20124;-80
2023/12/29 04:19:56;;;;;;;6.78;2.88;;;;;;;12.30;81.04;100117.69;5017454;28;20081;-79
2023/12/29 04:22:23;;;;;;;6.85;2.80;;;;;;;12.30;81.04;100115.06;5017000;28;20057;-79
2023/12/29 04:24:49;;;;;;;8.93;3.25;;;;;;;12.43;81.12;100124.13;5015618;28;20085;-79
2023/12/29 04:27:18;;;;;;;10.48;4.38;;;;;;;12.55;80.87;100096.44;5015308;28;20058;-79
2023/12/29 04:29:45;;;;;;;10.77;2.75;;;;;;;12.35;81.21;100118.97;5015866;28;20218;-79
2023/12/29 04:32:12;;;;;;;7.07;2.90;;;;;;;12.47;80.87;100126.22;5015503;28;20130;-79
2023/12/29 04:34:38;;;;;;;9.65;2.70;;;;;;;12.45;81.11;100135.25;5016088;28;20116;-79
2023/12/29 04:37:05;;;;;;;5.28;3.05;;;;;;;12.29;81.10;100116.06;5016230;28;20049;-79
2023/12/29 04:39:32;;;;;;;16.00;3.83;;;;;;;12.38;81.27;100137.78;5014874;28;20133;-79
2023/12/29 04:41:58;;;;;;;8.75;3.20;;;;;;;12.53;81.18;100145.69;5015704;28;20081;-79
2023/12/29 04:44:26;;;;;;;11.38;2.90;;;;;;;12.44;81.37;100149.38;5015824;28;20092;-79
2023/12/29 04:46:53;;;;;;;10.02;2.72;;;;;;;12.52;81.18;100144.84;5018990;28;20078;-79
2023/12/29 04:49:19;;;;;;;8.10;3.30;;;;;;;12.56;80.95;100147.94;5015271;28;20110;-79
2023/12/29 04:51:48;;;;;;;8.63;2.70;;;;;;;12.60;81.13;100154.47;5018622;28;20113;-80
2023/12/29 04:54:15;;;;;;;8.30;3.60;;;;;;;12.52;80.92;100163.22;5020206;28;20060;-80
2023/12/29 04:56:41;;;;;;;6.78;2.70;;;;;;;12.49;81.49;100154.91;5020378;28;20081;-80
2023/12/29 04:59:08;;;;;;;7.38;3.17;;;;;;;12.32;81.67;100151.63;5019832;28;20136;-79
2023/12/29 05:01:36;;;;;;;8.05;3.30;;;;;;;12.40;82.05;100155.97;5018922;28;20467;-80
2023/12/29 05:04:03;;;;;;;8.35;2.90;;;;;;;12.22;82.45;100154.53;5020615;28;20045;-80
2023/12/29 05:06:29;;;;;;;8.88;2.78;;;;;;;12.20;82.68;100156.50;5020844;28;20468;-80
2023/12/29 05:08:56;;;;;;;8.43;2.95;;;;;;;12.23;82.70;100160.59;5020081;28;20053;-79
2023/12/29 05:11:22;;;;;;;11.63;2.83;;;;;;;12.06;82.91;100166.94;5020196;28;20098;-80
2023/12/29 05:13:49;;;;;;;9.43;3.15;;;;;;;12.28;82.53;100172.19;5019909;28;20109;-80
2023/12/29 05:16:16;;;;;;;8.13;3.10;;;;;;;12.15;82.85;100163.28;5019961;28;20494;-79
2023/12/29 05:18:44;;;;;;;10.63;3.38;;;;;;;12.25;82.66;100167.28;5019401;28;20045;-79
2023/12/29 05:21:15;;;;;;;9.02;3.00;;;;;;;12.16;82.68;100163.09;5022562;28;20124;-79
2023/12/29 05:23:42;;;;;;;7.28;3.15;;;;;;;12.21;82.30;100152.06;5029692;28;20065;-80
2023/12/29 05:26:09;;;;;;;8.73;2.70;;;;;;;12.16;82.43;100152.59;5032316;28;20469;-80
2023/12/29 05:28:36;;;;;;;7.95;2.92;;;;;;;12.17;82.33;100156.84;5030675;28;20049;-81
2023/12/29 05:31:03;;;;;;;8.10;2.83;;;;;;;12.06;82.26;100138.09;5021221;28;20046;-81
2023/12/29 05:33:30;;;;;;;10.73;3.00;;;;;;;12.10;82.10;100158.56;5020287;28;20056;-81
2023/12/29 05:35:58;;;;;;;6.50;2.85;;;;;;;12.11;81.97;100141.81;5020018;28;20467;-80
2023/12/29 05:38:25;;;;;;;7.15;2.95;;;;;;;12.05;81.83;100149.59;5020568;28;20093;-81
2023/12/29 05:40:51;;;;;;;24.05;3.67;;;;;;;12.04;82.09;100158.44;5019247;28;20045;-80
2023/12/29 05:43:19;;;;;;;8.05;3.20;;;;;;;12.04;82.27;100156.63;5019139;28;20526;-80
2023/12/29 05:45:45;;;;;;;6.32;2.88;;;;;;;12.12;82.16;100156.56;5019873;28;20096;-80
2023/12/29 05:48:12;;;;;;;6.97;2.80;;;;;;;12.16;81.82;100147.34;5018757;28;20089;-80
2023/12/29 05:50:39;;;;;;;9.98;2.65;;;;;;;12.07;82.20;100156.28;5019869;28;20077;-81
2023/12/29 05:53:07;;;;;;;10.73;3.33;;;;;;;12.07;82.31;100158.91;5019764;28;20057;-80
2023/12/29 05:55:34;;;;;;;7.40;3.03;;;;;;;12.10;82.12;100147.25;5019792;28;20113;-81
2023/12/29 05:58:01;;;;;;;7.88;3.15;;;;;;;12.02;82.18;100142.88;5017829;28;20054;-81
2023/12/29 06:00:27;;;;;;;12.15;3.13;;;;;;;12.09;82.15;100151.69;5019407;28;20100;-81
2023/12/29 06:02:54;;;;;;;14.65;3.10;;;;;;;12.03;82.12;100141.06;5019058;28;20054;-80
2023/12/29 06:05:21;;;;;;;6.30;2.60;;;;;;;11.92;82.33;100144.94;5019602;28;20116;-80
2023/12/29 06:07:47;;;;;;;9.82;2.92;;;;;;;11.89;82.82;100155.78;5020777;28;20085;-81
2023/12/29 06:10:15;;;;;;;10.52;2.95;;;;;;;11.95;82.88;100155.06;5019077;28;20508;-81
2023/12/29 06:12:42;;;;;;;10.00;2.90;;;;;;;12.02;82.61;100158.63;5018841;28;20357;-80
2023/12/29 06:15:10;;;;;;;7.20;2.88;;;;;;;11.81;82.67;100142.75;5018856;28;20104;-81
2023/12/29 06:17:36;;;;;;;7.13;3.22;;;;;;;12.04;82.30;100151.38;5018495;28;20053;-81
2023/12/29 06:20:05;;;;;;;9.57;3.10;;;;;;;11.88;82.28;100151.50;5019548;28;20053;-81
2023/12/29 06:22:32;;;;;;;7.82;2.80;;;;;;;11.94;82.51;100156.06;5017807;28;20046;-81
2023/12/29 06:24:59;;;;;;;7.15;2.72;;;;;;;11.92;82.52;100165.91;5019273;28;20109;-81
2023/12/29 06:27:28;;;;;;;5.40;2.63;;;;;;;12.05;82.22;100170.56;5018557;28;20057;-80
2023/12/29 06:29:54;;;;;;;8.07;2.70;;;;;;;11.91;82.45;100170.34;5018202;28;20117;-79
2023/12/29 06:32:21;;;;;;;9.90;2.72;;;;;;;11.86;82.73;100162.19;5018404;28;20046;-80
2023/12/29 06:34:48;;;;;;;8.65;2.97;;;;;;;11.99;82.45;100156.34;5018896;28;20137;-80
2023/12/29 06:37:15;;;;;;;9.30;3.63;;;;;;;11.94;82.53;100163.94;5018206;28;20054;-80
2023/12/29 06:39:42;;;;;;;12.82;3.20;;;;;;;11.95;82.54;100170.81;5017792;28;20053;-80
2023/12/29 06:42:08;;;;;;;8.30;2.60;;;;;;;11.89;82.65;100177.56;5019211;28;20045;-80
2023/12/29 06:44:36;;;;;;;6.45;2.65;;;;;;;11.87;82.72;100155.94;5018874;28;20148;-80
2023/12/29 06:47:05;;;;;;;9.57;3.50;;;;;;;12.01;82.64;100172.72;5018258;28;20046;-80
2023/12/29 06:49:32;;;;;;;6.85;3.30;;;;;;;11.91;82.39;100170.34;5015108;28;20058;-79
2023/12/29 06:51:59;;;;;;;8.43;2.30;;;;;;;11.99;82.58;100166.03;5018946;28;20050;-80
2023/12/29 06:54:25;;;;;;;8.13;2.80;;;;;;;11.81;82.86;100148.00;5019354;28;20057;-80
2023/12/29 06:56:52;;;;;;;10.43;3.22;;;;;;;11.96;82.61;100147.03;5021235;28;20042;-80
2023/12/29 06:59:19;;;;;;;10.55;2.67;;;;;;;11.95;82.61;100142.78;5020287;28;20050;-80
2023/12/29 07:01:48;;;;;;;6.18;2.90;;;;;;;12.03;82.56;100136.66;5017033;28;20393;-78
2023/12/29 07:04:15;;;;;;;7.93;2.28;;;;;;;12.00;82.76;100134.38;5020953;28;20128;-78
2023/12/29 07:06:42;;;;;;;7.10;3.10;;;;;;;12.05;82.37;100118.94;5020992;28;20136;-79
2023/12/29 07:09:09;;;;;;;11.40;3.17;;;;;;;12.17;82.17;100125.38;5019114;28;20050;-78
2023/12/29 07:11:36;;;;;;;5.78;2.45;;;;;;;12.08;81.87;100125.63;5019523;28;20114;-79
2023/12/29 07:14:03;;;;;;;8.15;2.13;;;;;;;12.05;81.94;100105.81;5021020;28;20501;-79
2023/12/29 07:16:30;;;;;;;9.98;3.00;;;;;;;12.11;82.04;100120.03;5022084;28;20073;-78
2023/12/29 07:18:58;;;;;;;6.15;2.90;;;;;;;12.16;82.18;100136.88;5010096;28;20116;-78
2023/12/29 07:21:24;;;;;;;9.00;2.78;;;;;;;11.98;82.10;100131.13;5019400;28;20472;-78
2023/12/29 07:23:51;;;;;;;6.10;2.67;;;;;;;12.16;81.71;100136.88;5018100;28;20165;-79
2023/12/29 07:26:18;;;;;;;5.60;2.40;;;;;;;12.16;81.39;100121.13;5018559;28;20054;-79
2023/12/29 07:28:44;;;;;;;7.00;2.92;;;;;;;12.26;81.33;100121.69;5016226;28;20058;-79
2023/12/29 07:31:11;;;;;;;8.32;2.45;;;;;;;12.22;81.39;100136.16;5015120;28;20081;-79
2023/12/29 07:33:38;;;;;;;7.15;2.40;;;;;;;12.19;81.59;100136.50;5017594;28;20046;-79
2023/12/29 07:36:07;;;;;;;6.80;2.35;;;;;;;12.38;81.29;100139.59;5018736;28;20053;-79
2023/12/29 07:38:33;;;;;;;6.93;2.78;;;;;;;12.37;80.88;100128.28;5022579;28;20050;-79
2023/12/29 07:41:01;;;;;;;12.50;3.13;;;;;;;12.22;80.82;100123.03;5024169;28;20057;-79
2023/12/29 07:43:28;;;;;;;8.35;3.03;;;;;;;12.46;80.57;100135.09;5024248;28;20109;-79
2023/12/29 07:45:55;;;;;;;7.10;2.55;;;;;;;12.59;80.09;100129.22;5020318;28;20057;-79
2023/12/29 07:48:22;;;;;;;7.43;2.20;;;;;;;12.66;79.96;100138.00;5014451;28;20050;-79
2023/12/29 07:50:48;;;;;;;7.22;2.90;;;;;;;12.50;81.10;100149.47;5014982;28;20438;-79
2023/12/29 07:53:17;;;;;;;9.05;2.40;;;;;;;12.56;82.14;100164.50;5016164;28;20133;-80
2023/12/29 07:55:46;;;;;;;6.60;2.92;;;;;;;12.51;82.94;100176.53;5017297;28;20058;-79
2023/12/29 07:58:13;;;;;;;10.50;3.08;;;;;;;12.14;84.78;100174.75;5014769;28;20332;-79
2023/12/29 08:00:39;;;;;;;7.70;2.75;;;;;;;12.06;86.09;100185.31;5014285;28;20104;-78
2023/12/29 08:03:07;;;;;;;10.77;2.90;;;;;;;12.14;87.34;100200.97;5013598;28;20125;-79
2023/12/29 08:05:34;;;;;;;8.73;2.80;;;;;;;11.96;88.76;100204.72;5015775;28;20076;-79
2023/12/29 08:08:01;;;;;;;6.18;2.65;;;;;;;11.76;90.01;100214.00;5013851;28;20141;-78
2023/12/29 08:10:29;;;;;;;7.47;2.78;;;;;;;11.76;91.56;100215.81;5016447;28;20046;-78
2023/12/29 08:12:55;;;;;;;9.45;3.13;;;;;;;11.84;92.09;100213.16;5016676;28;20077;-79
2023/12/29 08:15:22;;;;;;;5.65;2.53;;;;;;;11.67;93.29;100206.38;5007623;28;20144;-78
2023/12/29 08:17:49;;;;;;;8.23;2.97;;;;;;;11.64;94.05;100210.97;4992878;28;20081;-79
2023/12/29 08:20:15;;;;;;;11.32;3.65;;;;;;;11.56;94.60;100213.63;4994658;28;20488;-79
2023/12/29 08:22:42;;;;;;;9.82;3.35;;;;;;;11.55;95.27;100217.25;4994226;28;20473;-79
2023/12/29 08:25:09;;;;;;;8.25;3.60;;;;;;;11.56;96.13;100221.50;4996316;28;20121;-79
2023/12/29 08:27:37;;;;;;;10.23;2.55;;;;;;;11.54;96.75;100218.22;5000446;28;20129;-79
2023/12/29 08:30:05;;;;;;;9.35;2.95;;;;;;;11.49;96.77;100220.53;5000471;28;20492;-79
2023/12/29 08:32:33;;;;;;;8.25;3.20;;;;;;;11.55;97.71;100214.63;4999692;28;20133;-79
2023/12/29 08:34:59;;;;;;;7.95;3.33;;;;;;;11.72;97.79;100217.16;5001035;28;20054;-79
2023/12/29 08:37:26;;;;;;;8.73;2.83;;;;;;;11.80;97.67;100212.72;4999539;28;20516;-80
2023/12/29 08:39:53;;;;;;;5.05;2.20;;;;;;;11.82;97.29;100202.84;5000273;28;20046;-80
2023/12/29 08:42:20;;;;;;;6.05;3.08;;;;;;;11.85;97.29;100222.66;4997654;28;20133;-80
2023/12/29 08:44:48;;;;;;;9.48;3.38;;;;;;;11.81;97.28;100211.72;5000065;28;20101;-81
2023/12/29 08:47:15;;;;;;;7.82;3.00;;;;;;;11.75;98.01;100207.13;5000577;28;20058;-79
2023/12/29 08:49:41;;;;;;;10.13;3.10;;;;;;;11.83;98.42;100214.97;4999038;28;20524;-79
2023/12/29 08:52:08;;;;;;;6.80;3.63;;;;;;;11.59;98.84;100210.66;4998778;28;20421;-79
2023/12/29 08:54:36;;;;;;;10.00;3.20;;;;;;;11.78;98.61;100219.13;4998152;28;20050;-79
2023/12/29 08:57:03;;;;;;;10.38;4.22;;;;;;;11.78;98.72;100219.13;4999588;28;20509;-79
2023/12/29 08:59:30;;;;;;;6.50;3.03;;;;;;;11.75;98.80;100220.25;4999216;28;20110;-79
2023/12/29 09:01:58;;;;;;;9.20;3.45;;;;;;;11.52;99.56;100222.81;4998953;28;20132;-78
2023/12/29 09:04:24;;;;;;;9.57;2.65;;;;;;;11.59;99.69;100236.88;4999302;28;20133;-78
2023/12/29 09:06:51;;;;;;;5.88;2.58;;;;;;;11.56;99.46;100231.97;4998630;28;20489;-79
2023/12/29 09:09:17;;;;;;;8.50;2.85;;;;;;;11.59;99.40;100231.63;4996603;28;20114;-79
2023/12/29 09:11:47;;;;;;;8.63;2.60;;;;;;;11.66;99.70;100229.13;4997463;28;20481;-79
2023/12/29 09:14:13;;;;;;;10.18;2.78;;;;;;;11.75;99.51;100237.78;4992908;28;20146;-79
2023/12/29 09:16:42;;;;;;;8.15;2.83;;;;;;;11.69;99.90;100233.22;4992689;28;20058;-79
2023/12/29 09:19:10;;;;;;;8.05;2.72;;;;;;;11.65;100.00;100232.75;4995827;28;20046;-78
2023/12/29 09:21:36;;;;;;;5.68;2.75;;;;;;;11.87;100.00;100236.41;5000925;28;20151;-80
2023/12/29 09:24:04;;;;;;;4.25;2.38;;;;;;;11.69;100.00;100228.78;4979438;28;20137;-80
2023/12/29 09:26:31;;;;;;;9.68;2.90;;;;;;;11.91;100.00;100227.19;4978571;28;20047;-80
2023/12/29 09:28:57;;;;;;;12.85;3.35;;;;;;;12.10;100.00;100232.00;4979627;28;20098;-79
2023/12/29 09:31:24;;;;;;;5.88;2.90;;;;;;;11.99;100.00;100210.59;4979862;28;20130;-79
2023/12/29 09:33:51;;;;;;;8.50;3.10;;;;;;;11.88;100.00;100222.31;4980726;28;20081;-80
2023/12/29 09:36:19;;;;;;;10.05;3.50;;;;;;;12.00;99.96;100234.03;4978052;28;20142;-79
2023/12/29 09:38:46;;;;;;;7.32;3.10;;;;;;;11.87;99.77;100216.25;4978895;28;20087;-79
2023/12/29 09:41:15;;;;;;;10.23;3.33;;;;;;;12.06;99.63;100225.47;4979798;28;20067;-79
2023/12/29 09:43:42;;;;;;;11.82;3.42;;;;;;;12.11;99.31;100232.81;4980805;28;20137;-79
2023/12/29 09:46:10;;;;;;;5.88;2.40;;;;;;;12.29;98.56;100231.50;4981109;28;20577;-79
2023/12/29 09:48:38;;;;;;;6.70;2.47;;;;;;;12.09;98.82;100226.91;4983068;28;20082;-78
2023/12/29 09:51:06;;;;;;;6.28;2.65;;;;;;;12.10;98.55;100221.50;4982790;28;20050;-78
2023/12/29 09:53:36;;;;;;;6.20;3.20;;;;;;;12.26;97.80;100220.56;4983468;28;20050;-79
2023/12/29 09:56:06;;;;;;;7.88;2.65;;;;;;;12.20;97.49;100221.25;4982250;28;20142;-79
2023/12/29 09:58:33;;;;;;;6.20;1.90;;;;;;;12.19;97.32;100215.19;4973851;28;20120;-80
2023/12/29 10:01:02;;;;;;;9.20;5.13;;;;;;;12.51;96.55;100221.97;4981024;28;20098;-79
2023/12/29 10:03:29;;;;;;;4.13;2.10;;;;;;;12.51;95.70;100213.28;4980605;28;20075;-80
2023/12/29 10:05:59;;;;;;;2.95;1.60;;;;;;;12.41;95.30;100207.47;4979565;28;20074;-79
2023/12/29 10:08:27;;;;;;;5.60;1.90;;;;;;;12.63;94.51;100207.41;4982302;28;20110;-80
2023/12/29 10:10:58;;;;;;;3.88;2.03;;;;;;;12.53;93.89;100206.84;4983121;28;20083;-80
2023/12/29 10:13:27;;;;;;;3.58;1.85;;;;;;;12.56;93.62;100211.75;4978243;28;20058;-80
2023/12/29 10:16:02;;;;;;;8.18;2.50;;;;;;;12.73;93.36;100201.09;4980928;28;20074;-79
2023/12/29 10:18:33;;;;;;;4.22;2.08;;;;;;;12.57;92.94;100200.25;4979932;28;20397;-80
2023/12/29 10:21:03;;;;;;;5.20;2.30;;;;;;;12.57;92.89;100194.19;4979086;28;20047;-79
2023/12/29 10:23:37;;;;;;;7.78;2.90;;;;;;;12.74;92.52;100200.91;4980402;28;20042;-79
2023/12/29 10:26:06;;;;;;;5.20;2.28;;;;;;;12.71;92.55;100209.16;4978683;28;20064;-79
2023/12/29 10:28:33;;;;;;;5.35;2.60;;;;;;;12.97;92.42;100198.19;4979265;28;20053;-80
2023/12/29 10:31:00;;;;;;;9.35;2.70;;;;;;;12.99;91.21;100179.63;4979072;28;20106;-79
2023/12/29 10:33:29;;;;;;;6.15;2.58;;;;;;;12.96;90.84;100186.03;4980606;28;20070;-80
2023/12/29 10:36:02;;;;;;;3.40;1.83;;;;;;;13.16;90.47;100191.59;4979423;28;20047;-80
2023/12/29 10:38:28;;;;;;;6.97;2.28;;;;;;;13.12;89.85;100190.28;4979188;28;20070;-79
2023/12/29 10:40:55;;;;;;;7.03;2.55;;;;;;;13.11;89.82;100192.09;4980248;28;20081;-80
2023/12/29 10:43:24;;;;;;;5.82;2.35;;;;;;;13.38;89.65;100195.88;4979769;28;20573;-80
2023/12/29 10:46:06;;;;;;;7.55;2.80;;;;;;;13.53;88.78;100194.03;4979387;28;20073;-79
2023/12/29 10:48:33;;;;;;;5.88;2.72;;;;;;;13.25;88.45;100183.41;4977613;28;20074;-80
2023/12/29 10:51:06;;;;;;;5.65;2.03;;;;;;;13.47;88.45;100202.66;4974025;28;20098;-80
2023/12/29 10:53:33;;;;;;;5.68;2.33;;;;;;;13.26;88.14;100182.41;4971491;28;20359;-80
2023/12/29 10:56:00;;;;;;;9.57;2.90;;;;;;;13.37;87.90;100183.75;4972084;28;20090;-80
2023/12/29 10:58:29;;;;;;;7.55;2.78;;;;;;;13.59;87.66;100187.22;4976632;28;20125;-80
2023/12/29 11:00:56;;;;;;;6.47;2.15;;;;;;;13.54;87.35;100179.09;4973824;28;20106;-80
2023/12/29 11:03:23;;;;;;;4.05;2.20;;;;;;;13.39;87.04;100184.38;4976028;28;20047;-80
2023/12/29 11:05:50;;;;;;;4.30;2.17;;;;;;;13.43;87.05;100187.44;4978983;28;20474;-80
2023/12/29 11:08:18;;;;;;;8.05;4.57;;;;;;;13.45;87.34;100186.28;4973587;28;20513;-80
2023/12/29 11:10:45;;;;;;;7.07;2.47;;;;;;;13.59;87.13;100179.34;4977025;28;20114;-80
2023/12/29 11:13:13;;;;;;;3.97;2.40;;;;;;;13.87;86.65;100192.56;4975928;28;20121;-81
2023/12/29 11:15:44;;;;;;;11.15;2.50;;;;;;;13.73;86.61;100172.38;4970886;28;20065;-80
2023/12/29 11:18:13;;;;;;;9.38;3.13;;;;;;;13.78;85.70;100170.81;4973583;28;20078;-81
2023/12/29 11:20:41;;;;;;;5.15;2.25;;;;;;;14.05;85.08;100169.25;4970211;28;20090;-80
2023/12/29 11:23:09;;;;;;;9.00;2.97;;;;;;;14.02;84.90;100167.00;4976799;28;20078;-81
2023/12/29 11:25:36;;;;;;;3.63;1.65;;;;;;;14.14;84.64;100169.94;4970446;28;20150;-80